Time;durP1;ratioP1;P1;durP2;ratioP2;P2;SDS_P1;SDS_P2;PMS_P1;PMS_P2;Temp;Humidity;BMP_temperature;BMP_pressure;BME280_temperature;BME280_humidity;BME280_pressure;Samples;Min_cycle;Max_cycle;Signal;HPM_P1;HPM_P2
2022/01/12 00:02:14;;;;;;;70.40;22.05;;;3.20;99.90;;;;;;5126367;27;20044;-73
2022/01/12 00:04:40;;;;;;;69.95;21.48;;;3.20;99.90;;;;;;5087345;28;20042;-73
2022/01/12 00:07:06;;;;;;;60.85;21.70;;;3.20;99.90;;;;;;5111076;27;20043;-73
2022/01/12 00:09:32;;;;;;;66.68;22.45;;;3.20;99.90;;;;;;5093445;27;20046;-73
2022/01/12 00:11:59;;;;;;;60.10;21.52;;;3.20;99.90;;;;;;5130988;27;20043;-73
2022/01/12 00:14:27;;;;;;;65.60;22.50;;;3.30;99.90;;;;;;5110814;28;20057;-73
2022/01/12 00:16:58;;;;;;;62.22;21.50;;;3.30;99.90;;;;;;5092192;28;20048;-73
2022/01/12 00:19:25;;;;;;;74.68;23.38;;;3.30;99.90;;;;;;5113156;28;20055;-73
2022/01/12 00:21:51;;;;;;;69.90;22.95;;;3.20;99.90;;;;;;5130794;28;20059;-73
2022/01/12 00:24:17;;;;;;;67.05;23.25;;;3.30;99.90;;;;;;5129391;28;20379;-73
2022/01/12 00:33:08;;;;;;;76.63;22.55;;;3.20;99.90;;;;;;5129646;28;20067;-73
2022/01/12 00:35:01;;;;;;;65.68;22.38;;;3.30;99.90;;;;;;5097125;28;20082;-73
2022/01/12 00:37:28;;;;;;;70.07;23.92;;;3.40;99.90;;;;;;5111185;28;20071;-73
2022/01/12 00:39:58;;;;;;;83.38;24.15;;;3.40;99.90;;;;;;5120040;27;20043;-72
2022/01/12 00:42:27;;;;;;;77.43;24.48;;;3.40;99.90;;;;;;5114716;28;20078;-72
2022/01/12 00:44:53;;;;;;;75.15;23.05;;;3.40;99.90;;;;;;5130623;27;20047;-72
2022/01/12 00:47:19;;;;;;;73.90;25.07;;;3.40;99.90;;;;;;5113549;27;20231;-73
2022/01/12 00:49:45;;;;;;;74.05;24.65;;;3.40;99.90;;;;;;5104170;28;20432;-72
2022/01/12 00:52:11;;;;;;;68.60;22.33;;;3.30;99.90;;;;;;5121510;27;20051;-72
2022/01/12 00:54:38;;;;;;;79.13;24.65;;;3.30;99.90;;;;;;5101409;28;20043;-72
2022/01/12 00:57:04;;;;;;;68.72;22.90;;;3.30;99.90;;;;;;5115394;27;20044;-73
2022/01/12 00:59:30;;;;;;;72.38;23.35;;;3.30;99.90;;;;;;5114286;27;20043;-73
2022/01/12 01:01:56;;;;;;;72.05;23.13;;;3.30;99.90;;;;;;5115980;27;20050;-73
2022/01/12 01:04:22;;;;;;;65.05;22.00;;;3.30;99.90;;;;;;5107042;28;20050;-73
2022/01/12 01:06:48;;;;;;;61.17;22.15;;;3.30;99.90;;;;;;5097362;27;20052;-73
2022/01/12 01:09:14;;;;;;;63.30;22.77;;;3.40;99.90;;;;;;5114784;27;20060;-73
2022/01/12 01:11:39;;;;;;;74.68;23.88;;;3.30;99.90;;;;;;5112841;27;20123;-73
2022/01/12 01:14:21;;;;;;;57.85;21.95;;;3.30;99.90;;;;;;5078169;28;20043;-72
2022/01/12 01:17:18;;;;;;;67.30;22.17;;;3.40;99.90;;;;;;5097015;28;20040;-72
2022/01/12 01:28:13;;;;;;;66.50;21.60;;;3.40;99.90;;;;;;5073886;28;20330;-72
2022/01/12 01:30:40;;;;;;;62.80;21.92;;;3.50;99.90;;;;;;5085487;28;20115;-73
2022/01/12 01:33:09;;;;;;;;;;;3.50;99.90;;;;;;5092419;28;20055;-73
2022/01/12 01:35:39;;;;;;;79.50;22.38;;;3.50;99.90;;;;;;5103735;27;19926;-72
2022/01/12 01:38:06;;;;;;;60.35;20.45;;;3.40;99.90;;;;;;5124323;27;20043;-73
2022/01/12 01:40:34;;;;;;;75.70;22.25;;;3.40;99.90;;;;;;5117119;27;20043;-72
2022/01/12 01:53:45;;;;;;;64.78;22.20;;;3.50;99.90;;;;;;5083589;27;20058;-73
2022/01/12 01:56:12;;;;;;;70.80;23.80;;;3.50;99.90;;;;;;5110276;28;20066;-73
2022/01/12 01:58:39;;;;;;;69.20;22.77;;;3.50;99.90;;;;;;5116435;27;20081;-73
2022/01/12 02:01:05;;;;;;;64.10;23.38;;;3.50;99.90;;;;;;5127048;27;20052;-73
2022/01/12 02:03:31;;;;;;;67.75;23.10;;;3.50;99.90;;;;;;5114539;27;20069;-72
2022/01/12 02:06:00;;;;;;;74.55;23.58;;;3.60;99.90;;;;;;5113749;27;20044;-73
2022/01/12 02:08:27;;;;;;;67.05;22.45;;;3.60;99.90;;;;;;5132892;27;20046;-72
2022/01/12 02:10:55;;;;;;;69.57;23.48;;;3.60;99.90;;;;;;5097719;27;20039;-74
2022/01/12 02:13:21;;;;;;;69.20;23.55;;;3.50;99.90;;;;;;5089056;27;20130;-74
2022/01/12 02:15:48;;;;;;;75.63;24.88;;;3.60;99.90;;;;;;5116082;27;20079;-73
2022/01/12 02:40:24;;;;;;;129.25;27.88;;;3.50;99.90;;;;;;5113999;28;20294;-69
2022/01/12 02:43:03;;;;;;;130.13;26.77;;;3.50;99.90;;;;;;5096182;28;20055;-69
2022/01/12 02:51:11;;;;;;;111.15;26.58;;;3.50;99.90;;;;;;5114565;28;20047;-70
2022/01/12 02:53:39;;;;;;;224.38;29.08;;;3.60;99.90;;;;;;5114237;28;20599;-70
2022/01/12 02:56:16;;;;;;;119.63;26.95;;;3.50;99.90;;;;;;5096325;28;20108;-70
2022/01/12 02:58:44;;;;;;;104.57;25.65;;;3.60;99.90;;;;;;5113992;28;20032;-70
2022/01/12 03:03:44;;;;;;;95.07;24.88;;;3.70;99.90;;;;;;5113665;28;20109;-70
2022/01/12 03:06:15;;;;;;;99.72;25.58;;;3.70;99.90;;;;;;5112663;28;20124;-69
2022/01/12 03:08:41;;;;;;;148.50;27.75;;;3.70;99.90;;;;;;5114341;28;20387;-70
2022/01/12 03:11:09;;;;;;;98.60;26.42;;;3.70;99.90;;;;;;5095817;28;20052;-70
2022/01/12 03:13:36;;;;;;;150.38;27.63;;;3.70;99.90;;;;;;5095040;28;20096;-70
2022/01/12 03:16:11;;;;;;;105.78;24.75;;;3.80;99.90;;;;;;5114116;28;20048;-71
2022/01/12 03:18:37;;;;;;;108.70;25.92;;;3.80;99.90;;;;;;5094888;28;20509;-69
2022/01/12 03:21:03;;;;;;;120.95;26.35;;;3.70;99.90;;;;;;5111807;28;20069;-71
2022/01/12 03:23:29;;;;;;;235.13;31.00;;;3.80;99.90;;;;;;5113474;28;20426;-69
2022/01/12 03:25:54;;;;;;;230.98;32.72;;;3.80;99.90;;;;;;5113274;28;20131;-69
2022/01/12 03:28:20;;;;;;;171.70;28.67;;;3.70;99.90;;;;;;5113227;28;20131;-69
2022/01/12 03:31:03;;;;;;;215.50;30.10;;;3.70;99.90;;;;;;5113266;28;20046;-70
2022/01/12 03:38:56;;;;;;;315.63;32.53;;;3.70;99.90;;;;;;5113909;28;20112;-71
2022/01/12 03:41:23;;;;;;;123.38;27.50;;;3.80;99.90;;;;;;5095259;28;20379;-70
2022/01/12 03:43:49;;;;;;;127.78;26.88;;;3.70;99.90;;;;;;5078154;28;20047;-70
2022/01/12 03:46:18;;;;;;;132.63;27.73;;;3.80;99.90;;;;;;5113110;28;20044;-70
2022/01/12 03:48:43;;;;;;;143.15;27.05;;;3.80;99.90;;;;;;5113314;28;20070;-69
2022/01/12 03:51:09;;;;;;;252.40;32.40;;;3.80;99.90;;;;;;5113546;28;20459;-70
2022/01/12 03:53:35;;;;;;;169.07;27.50;;;3.80;99.90;;;;;;5112947;28;20054;-70
2022/01/12 03:56:01;;;;;;;238.75;31.15;;;3.90;99.90;;;;;;5094734;28;20050;-71
2022/01/12 03:58:26;;;;;;;108.78;26.10;;;3.80;99.90;;;;;;5094729;28;20185;-70
2022/01/12 04:00:52;;;;;;;171.35;29.33;;;3.80;99.90;;;;;;5112740;28;20040;-71
2022/01/12 04:03:18;;;;;;;143.45;26.73;;;3.80;99.90;;;;;;5111787;28;20062;-71
2022/01/12 04:08:28;;;;;;;246.38;29.90;;;3.90;99.90;;;;;;5094577;28;20051;-71
2022/01/12 04:10:56;;;;;;;185.18;27.30;;;3.80;99.90;;;;;;5112841;28;20104;-71
2022/01/12 04:13:23;;;;;;;107.28;25.25;;;3.80;99.90;;;;;;5113017;28;20039;-70
2022/01/12 04:15:52;;;;;;;;;;;3.80;99.90;;;;;;5113126;28;20078;-69
2022/01/12 04:18:18;;;;;;;114.03;24.80;;;3.90;99.90;;;;;;5112875;28;19920;-70
2022/01/12 04:20:47;;;;;;;191.02;28.13;;;3.90;99.90;;;;;;5093980;28;20620;-70
2022/01/12 04:23:17;;;;;;;188.68;29.13;;;3.90;99.90;;;;;;5094824;28;20142;-69
2022/01/12 04:25:52;;;;;;;130.63;27.85;;;3.90;99.90;;;;;;5095031;28;20503;-69
2022/01/12 04:28:20;;;;;;;145.20;28.45;;;3.90;99.90;;;;;;5113440;28;20048;-69
2022/01/12 04:30:47;;;;;;;166.43;28.67;;;3.90;99.90;;;;;;5078442;28;20044;-69
2022/01/12 04:33:13;;;;;;;145.77;27.65;;;3.90;99.90;;;;;;5094193;28;20048;-70
2022/01/12 04:35:46;;;;;;;273.95;31.98;;;3.90;99.90;;;;;;5112945;28;20054;-69
2022/01/12 04:38:13;;;;;;;148.75;27.55;;;3.90;99.90;;;;;;5112883;28;20051;-69
2022/01/12 04:40:39;;;;;;;263.13;31.25;;;3.90;99.90;;;;;;5112965;28;20088;-69
2022/01/12 04:43:07;;;;;;;177.45;29.05;;;3.80;99.90;;;;;;5094352;28;20475;-69
2022/01/12 04:48:48;;;;;;;137.75;26.88;;;3.80;99.90;;;;;;5094462;28;20062;-69
2022/01/12 04:50:56;;;;;;;206.18;30.92;;;3.80;99.90;;;;;;5109124;28;20399;-69
2022/01/12 04:53:22;;;;;;;146.60;27.63;;;3.80;99.90;;;;;;5112946;28;20073;-69
2022/01/12 04:55:49;;;;;;;240.85;31.35;;;3.80;99.90;;;;;;5094207;28;20043;-69
2022/01/12 04:58:16;;;;;;;126.65;28.25;;;3.80;99.90;;;;;;5094362;28;20123;-70
2022/01/12 05:00:45;;;;;;;168.38;29.15;;;3.80;99.90;;;;;;5112380;28;20400;-69
2022/01/12 05:13:52;;;;;;;102.38;24.10;;;3.80;99.90;;;;;;5112820;28;20055;-70
2022/01/12 05:16:19;;;;;;;110.97;24.90;;;3.80;99.90;;;;;;5112388;28;20044;-70
2022/01/12 05:18:47;;;;;;;118.22;25.80;;;3.80;99.90;;;;;;5111979;28;20542;-71
2022/01/12 05:21:13;;;;;;;;;;;3.80;99.90;;;;;;5094211;28;20044;-70
2022/01/12 05:23:39;;;;;;;103.55;24.33;;;3.70;99.90;;;;;;5112499;28;19965;-71
2022/01/12 05:26:05;;;;;;;100.25;24.88;;;3.70;99.90;;;;;;5112055;28;20048;-70
2022/01/12 05:28:32;;;;;;;145.75;25.45;;;3.60;99.90;;;;;;5098166;28;20353;-71
2022/01/12 05:30:58;;;;;;;153.68;27.70;;;3.40;99.90;;;;;;5097675;28;20051;-70
2022/01/12 05:33:25;;;;;;;143.45;27.17;;;3.30;99.90;;;;;;5097723;28;20108;-70
2022/01/12 05:35:53;;;;;;;118.07;24.77;;;3.20;99.90;;;;;;5097300;28;20126;-70
2022/01/12 05:38:19;;;;;;;117.93;24.58;;;3.10;99.90;;;;;;5115554;28;20043;-70
2022/01/12 05:40:48;;;;;;;105.47;23.35;;;3.00;99.90;;;;;;5079975;28;20046;-70
2022/01/12 05:43:20;;;;;;;107.75;21.85;;;3.00;99.90;;;;;;5116232;28;20051;-70
2022/01/12 05:45:45;;;;;;;97.43;23.30;;;2.80;99.90;;;;;;5097603;28;20040;-71
2022/01/12 05:50:41;;;;;;;124.55;21.00;;;2.70;99.90;;;;;;5081025;28;20054;-69
2022/01/12 05:53:07;;;;;;;137.43;23.70;;;2.70;99.90;;;;;;5097289;28;20058;-69
2022/01/12 05:55:33;;;;;;;137.73;23.63;;;2.70;99.90;;;;;;5114170;28;20058;-71
2022/01/12 05:57:59;;;;;;;90.78;20.70;;;2.60;99.90;;;;;;5098015;28;20479;-69
2022/01/12 06:00:27;;;;;;;82.93;20.70;;;2.60;99.90;;;;;;5114003;28;20038;-69
2022/01/12 06:02:53;;;;;;;112.50;21.00;;;2.50;99.90;;;;;;5115772;28;20123;-69
2022/01/12 06:05:19;;;;;;;84.57;19.90;;;2.50;99.90;;;;;;5114409;28;20431;-69
2022/01/12 06:07:47;;;;;;;90.38;20.27;;;2.40;99.90;;;;;;5096737;28;20062;-70
2022/01/12 06:10:13;;;;;;;;;;;2.30;99.90;;;;;;5080803;28;20043;-70
2022/01/12 06:12:39;;;;;;;183.40;22.15;;;2.30;99.90;;;;;;5097091;28;19930;-71
2022/01/12 06:15:05;;;;;;;81.53;19.73;;;2.30;99.90;;;;;;5097609;28;20048;-71
2022/01/12 06:17:31;;;;;;;247.05;23.98;;;2.30;99.90;;;;;;5079803;28;20043;-70
2022/01/12 06:19:57;;;;;;;200.80;23.25;;;2.30;99.90;;;;;;5115916;28;20436;-71
2022/01/12 06:22:24;;;;;;;302.42;25.08;;;2.30;99.90;;;;;;5113576;28;20669;-70
2022/01/12 06:24:50;;;;;;;191.85;22.20;;;2.30;99.90;;;;;;5114807;28;20043;-70
2022/01/12 06:27:17;;;;;;;150.43;21.58;;;2.30;99.90;;;;;;5113635;28;20043;-69
2022/01/12 06:29:50;;;;;;;98.90;20.00;;;2.20;99.90;;;;;;5114978;28;20044;-71
2022/01/12 06:32:17;;;;;;;182.13;21.05;;;2.30;99.90;;;;;;5114482;28;20488;-70
2022/01/12 06:34:42;;;;;;;95.05;18.95;;;2.30;99.90;;;;;;5096546;28;20043;-70
2022/01/12 06:37:08;;;;;;;88.65;20.75;;;2.40;99.90;;;;;;5079446;28;20048;-70
2022/01/12 06:39:34;;;;;;;279.13;25.17;;;2.60;99.90;;;;;;5114458;28;20122;-70
2022/01/12 06:42:00;;;;;;;70.78;20.17;;;2.50;99.90;;;;;;5080242;28;20060;-70
2022/01/12 06:44:26;;;;;;;77.78;20.30;;;2.60;99.90;;;;;;5079558;28;20383;-70
2022/01/12 06:46:53;;;;;;;82.43;20.52;;;2.60;99.90;;;;;;5096049;28;20047;-70
2022/01/12 06:49:19;;;;;;;80.78;20.70;;;2.70;99.90;;;;;;5114291;28;20055;-70
2022/01/12 06:51:46;;;;;;;86.72;21.13;;;2.70;99.90;;;;;;5114194;28;20047;-72
2022/01/12 06:54:14;;;;;;;97.78;21.75;;;2.70;99.90;;;;;;5079284;28;20123;-72
2022/01/12 06:56:40;;;;;;;75.63;19.05;;;2.80;99.90;;;;;;5114310;28;20052;-71
2022/01/12 06:59:06;;;;;;;80.30;20.38;;;2.70;99.90;;;;;;5114713;28;20103;-71
2022/01/12 07:01:33;;;;;;;77.00;18.58;;;2.80;99.90;;;;;;5095855;28;20051;-70
2022/01/12 07:03:58;;;;;;;94.88;21.40;;;2.80;99.90;;;;;;5096154;28;20508;-71
2022/01/12 07:06:24;;;;;;;89.45;20.27;;;2.80;99.90;;;;;;5095895;28;20082;-70
2022/01/12 07:08:50;;;;;;;70.50;18.98;;;2.70;99.90;;;;;;5113746;28;20046;-71
2022/01/12 07:11:16;;;;;;;81.78;19.55;;;2.80;99.90;;;;;;5113979;28;20043;-70
2022/01/12 07:13:42;;;;;;;85.82;19.20;;;2.70;99.90;;;;;;5113698;28;20044;-70
2022/01/12 07:16:08;;;;;;;71.60;19.38;;;2.70;99.90;;;;;;5113539;28;20096;-70
2022/01/12 07:18:34;;;;;;;65.18;18.00;;;2.70;99.90;;;;;;5113468;28;20502;-71
2022/01/12 07:20:59;;;;;;;71.60;18.95;;;2.60;99.90;;;;;;5113199;28;20051;-70
2022/01/12 07:23:29;;;;;;;67.70;18.27;;;2.70;99.90;;;;;;5113259;28;20046;-70
2022/01/12 07:25:55;;;;;;;91.70;19.48;;;2.60;99.90;;;;;;5113536;28;20084;-71
2022/01/12 07:28:22;;;;;;;77.97;19.02;;;2.60;99.90;;;;;;5113380;28;20071;-71
2022/01/12 07:30:49;;;;;;;78.22;19.48;;;2.60;99.90;;;;;;5113057;28;20058;-72
2022/01/12 07:33:15;;;;;;;74.82;17.48;;;2.50;99.90;;;;;;5113289;28;20047;-70
2022/01/12 07:35:41;;;;;;;91.25;18.92;;;2.50;99.90;;;;;;5113013;28;20100;-71
2022/01/12 07:38:07;;;;;;;66.13;17.23;;;2.40;99.90;;;;;;5095309;28;20051;-70
2022/01/12 07:40:35;;;;;;;99.47;20.48;;;2.40;99.90;;;;;;5095325;28;20379;-70
2022/01/12 07:43:05;;;;;;;86.32;20.13;;;2.30;99.90;;;;;;5113327;28;20044;-70
2022/01/12 07:45:31;;;;;;;75.35;17.90;;;2.40;99.90;;;;;;5113806;28;20528;-71
2022/01/12 07:47:57;;;;;;;78.93;19.60;;;2.40;99.90;;;;;;5113791;28;20100;-71
2022/01/12 07:50:24;;;;;;;83.60;19.67;;;2.40;99.90;;;;;;5094611;28;20055;-70
2022/01/12 07:52:53;;;;;;;81.20;20.47;;;2.40;99.90;;;;;;5078329;28;20112;-72
2022/01/12 07:55:20;;;;;;;85.13;19.00;;;2.50;99.90;;;;;;5095588;28;20044;-70
2022/01/12 07:57:47;;;;;;;92.53;19.65;;;2.50;99.90;;;;;;5113300;28;20478;-70
2022/01/12 08:00:13;;;;;;;87.40;19.83;;;2.50;99.90;;;;;;5113074;28;20035;-71
2022/01/12 08:02:39;;;;;;;72.60;17.60;;;2.50;99.90;;;;;;5113313;28;20077;-70
2022/01/12 08:05:05;;;;;;;77.10;17.63;;;2.60;99.90;;;;;;5113209;28;20308;-71
2022/01/12 08:07:35;;;;;;;82.90;18.05;;;2.50;99.90;;;;;;5112236;28;20039;-71
2022/01/12 08:10:02;;;;;;;121.10;22.42;;;2.60;99.90;;;;;;5095587;28;20170;-70
2022/01/12 08:12:28;;;;;;;96.88;21.02;;;2.70;99.90;;;;;;5113163;28;20123;-71
2022/01/12 08:14:53;;;;;;;72.32;19.00;;;2.60;99.90;;;;;;5113305;28;20079;-72
2022/01/12 08:17:19;;;;;;;75.50;18.92;;;2.50;99.90;;;;;;5112950;28;20040;-71
2022/01/12 08:19:45;;;;;;;87.75;19.73;;;2.50;99.90;;;;;;5113192;28;20044;-71
2022/01/12 08:22:11;;;;;;;87.03;20.00;;;2.50;99.90;;;;;;5113300;28;20055;-70
2022/01/12 08:24:37;;;;;;;90.22;20.55;;;2.40;99.90;;;;;;5111506;28;20170;-71
2022/01/12 08:27:03;;;;;;;77.35;19.83;;;2.30;99.90;;;;;;5113258;28;20039;-71
2022/01/12 08:29:29;;;;;;;85.35;19.77;;;2.30;99.90;;;;;;5113339;28;20062;-70
2022/01/12 08:31:55;;;;;;;76.55;18.38;;;2.30;99.90;;;;;;5112861;28;20044;-71
2022/01/12 08:34:22;;;;;;;61.97;16.65;;;2.30;99.90;;;;;;5113186;28;20043;-71
2022/01/12 08:36:48;;;;;;;91.50;18.88;;;2.30;99.90;;;;;;5112903;28;20047;-70
2022/01/12 08:39:14;;;;;;;80.35;19.73;;;2.30;99.90;;;;;;5112621;28;20395;-72
2022/01/12 08:41:39;;;;;;;72.28;17.70;;;2.40;99.90;;;;;;5112902;28;20055;-71
2022/01/12 08:44:07;;;;;;;72.28;17.90;;;2.50;99.90;;;;;;5112724;28;20063;-71
2022/01/12 08:46:33;;;;;;;82.35;17.45;;;2.60;99.90;;;;;;5112737;28;20047;-70
2022/01/12 08:48:59;;;;;;;81.00;17.83;;;2.70;99.90;;;;;;5112507;28;20039;-71
2022/01/12 08:51:25;;;;;;;73.15;17.20;;;2.80;99.90;;;;;;5112673;28;20084;-70
2022/01/12 08:53:50;;;;;;;60.03;17.65;;;2.90;99.90;;;;;;5112741;28;20040;-71
2022/01/12 08:56:16;;;;;;;68.13;15.43;;;3.00;99.90;;;;;;5111253;28;20047;-70
2022/01/12 08:58:42;;;;;;;75.75;16.08;;;3.10;99.90;;;;;;5113140;28;20464;-71
2022/01/12 09:01:10;;;;;;;75.50;15.20;;;3.30;99.90;;;;;;5094007;28;20044;-70
2022/01/12 09:03:37;;;;;;;96.25;15.70;;;3.30;99.90;;;;;;5098223;28;20067;-70
2022/01/12 09:06:05;;;;;;;121.40;14.40;;;3.40;99.90;;;;;;5116416;28;20044;-70
2022/01/12 09:08:31;;;;;;;;;;;3.50;99.90;;;;;;5098591;28;20043;-71
2022/01/12 09:10:57;;;;;;;184.23;17.73;;;3.50;99.90;;;;;;5116305;28;19920;-72
2022/01/12 09:13:23;;;;;;;280.58;20.75;;;3.60;99.90;;;;;;5116923;28;20544;-69
2022/01/12 09:15:49;;;;;;;150.43;15.00;;;3.70;99.90;;;;;;5115920;28;20495;-70
2022/01/12 09:18:15;;;;;;;362.38;22.52;;;3.70;99.90;;;;;;5116010;28;20043;-70
2022/01/12 09:20:41;;;;;;;299.48;18.92;;;3.80;99.90;;;;;;5097559;28;20044;-71
2022/01/12 09:23:07;;;;;;;117.65;13.35;;;3.90;99.90;;;;;;5097861;28;20051;-71
2022/01/12 09:25:35;;;;;;;149.00;15.82;;;4.00;99.90;;;;;;5097910;28;20376;-70
2022/01/12 09:28:02;;;;;;;245.68;18.52;;;4.00;99.90;;;;;;5115991;28;20054;-73
2022/01/12 09:30:29;;;;;;;229.55;19.73;;;4.10;99.90;;;;;;5115703;28;20052;-70
2022/01/12 09:32:55;;;;;;;64.95;13.90;;;4.10;99.90;;;;;;5097804;28;20047;-70
2022/01/12 09:35:21;;;;;;;86.43;13.93;;;4.30;99.90;;;;;;5098260;28;20047;-70
2022/01/12 09:37:47;;;;;;;61.35;13.45;;;4.30;99.90;;;;;;5116551;28;20075;-71
2022/01/12 09:40:13;;;;;;;78.90;14.45;;;4.40;99.90;;;;;;5115551;28;20043;-71
2022/01/12 09:42:43;;;;;;;67.68;12.85;;;4.50;99.90;;;;;;5115475;28;20483;-70
2022/01/12 09:45:14;;;;;;;67.75;12.15;;;4.60;99.90;;;;;;5098147;28;20063;-71
2022/01/12 09:47:40;;;;;;;68.28;11.30;;;4.70;99.90;;;;;;5115800;28;20401;-70
2022/01/12 09:50:08;;;;;;;57.70;11.20;;;4.80;99.90;;;;;;5097318;28;20136;-70
2022/01/12 09:52:33;;;;;;;55.75;10.68;;;4.90;99.90;;;;;;5097770;28;20130;-70
2022/01/12 09:54:59;;;;;;;57.65;10.90;;;4.90;99.90;;;;;;5097126;28;20523;-71
2022/01/12 09:57:25;;;;;;;61.40;9.75;;;5.10;99.90;;;;;;5115979;28;20043;-70
2022/01/12 09:59:51;;;;;;;61.03;10.07;;;5.00;99.90;;;;;;5096962;28;20130;-70
2022/01/12 10:02:18;;;;;;;60.38;9.43;;;5.20;99.90;;;;;;5115363;28;20097;-70
2022/01/12 10:04:44;;;;;;;46.85;8.85;;;5.30;99.90;;;;;;5115260;28;20047;-69
2022/01/12 10:07:11;;;;;;;64.72;9.02;;;5.30;99.90;;;;;;5096876;28;20051;-69
2022/01/12 10:09:45;;;;;;;45.80;8.75;;;5.40;99.90;;;;;;5113842;28;20048;-72
2022/01/12 10:12:19;;;;;;;39.10;8.05;;;5.40;99.90;;;;;;5114623;28;20051;-70
2022/01/12 10:14:49;;;;;;;47.80;7.88;;;5.40;99.90;;;;;;5114927;28;20058;-70
2022/01/12 10:17:16;;;;;;;36.42;7.43;;;5.50;99.90;;;;;;5114685;28;20051;-70
2022/01/12 10:19:42;;;;;;;;;;;5.50;99.90;;;;;;5096904;28;20078;-70
2022/01/12 10:22:11;;;;;;;44.92;8.13;;;5.60;99.90;;;;;;5096222;28;19955;-70
2022/01/12 10:24:41;;;;;;;51.78;8.52;;;5.60;99.90;;;;;;5114761;28;20048;-72
2022/01/12 10:27:19;;;;;;;42.20;8.90;;;5.60;99.90;;;;;;5096488;28;20088;-72
2022/01/12 10:29:54;;;;;;;40.10;8.30;;;5.60;99.90;;;;;;5114725;28;20043;-70
2022/01/12 10:32:20;;;;;;;38.50;8.18;;;5.60;99.90;;;;;;5114649;28;20051;-70
2022/01/12 10:34:48;;;;;;;36.92;8.75;;;5.70;99.90;;;;;;5096379;28;20048;-70
2022/01/12 10:37:22;;;;;;;40.67;8.48;;;5.70;99.90;;;;;;5079598;28;20047;-70
2022/01/12 10:39:51;;;;;;;28.63;6.90;;;5.80;99.90;;;;;;5114592;28;20148;-70
2022/01/12 10:42:19;;;;;;;27.00;5.90;;;5.80;99.90;;;;;;5114483;28;20050;-70
2022/01/12 10:45:01;;;;;;;39.85;6.45;;;5.80;99.90;;;;;;5114096;28;20522;-70
2022/01/12 10:47:29;;;;;;;35.33;6.60;;;5.90;99.90;;;;;;5114305;28;20079;-70
2022/01/12 10:49:55;;;;;;;33.28;6.90;;;5.90;99.90;;;;;;5114123;28;20511;-71
2022/01/12 10:52:27;;;;;;;32.53;6.55;;;6.00;99.90;;;;;;5114219;28;20048;-70
2022/01/12 10:54:59;;;;;;;34.00;6.40;;;6.10;99.90;;;;;;5079472;28;20052;-70
2022/01/12 10:57:28;;;;;;;40.95;7.72;;;6.10;99.90;;;;;;5095767;28;20122;-71
2022/01/12 11:00:09;;;;;;;38.42;7.90;;;6.10;99.90;;;;;;5096339;28;20563;-71
2022/01/12 11:02:38;;;;;;;40.53;8.38;;;6.20;99.90;;;;;;5114213;28;20065;-71
2022/01/12 11:05:06;;;;;;;39.15;7.35;;;6.30;99.90;;;;;;5113791;28;20098;-71
2022/01/12 11:07:32;;;;;;;38.45;9.18;;;6.40;99.90;;;;;;5114291;28;20437;-71
2022/01/12 11:10:00;;;;;;;39.10;8.30;;;6.40;99.90;;;;;;5095613;28;20059;-70
2022/01/12 11:12:26;;;;;;;42.05;6.68;;;6.30;99.90;;;;;;5095702;28;20069;-70
2022/01/12 11:14:52;;;;;;;38.50;6.57;;;6.30;99.90;;;;;;5113528;28;20051;-70
2022/01/12 11:17:18;;;;;;;28.30;5.40;;;6.40;99.90;;;;;;5113806;28;20050;-70
2022/01/12 11:20:06;;;;;;;37.42;6.75;;;6.50;99.90;;;;;;5112343;28;20048;-69
2022/01/12 11:22:44;;;;;;;39.10;6.22;;;6.50;99.90;;;;;;5113879;28;20058;-70
2022/01/12 11:25:18;;;;;;;35.97;5.55;;;6.50;99.90;;;;;;5094764;28;20048;-70
2022/01/12 11:27:44;;;;;;;36.53;6.63;;;6.50;99.90;;;;;;5113977;28;20075;-70
2022/01/12 11:30:23;;;;;;;35.75;6.20;;;6.30;99.90;;;;;;5112061;28;20124;-70
2022/01/12 11:33:00;;;;;;;36.35;7.60;;;6.30;99.90;;;;;;5113959;28;20108;-70
2022/01/12 11:35:33;;;;;;;38.35;7.07;;;6.20;99.90;;;;;;5095582;28;20460;-70
2022/01/12 11:38:00;;;;;;;37.88;7.80;;;6.20;99.90;;;;;;5113827;28;20442;-70
2022/01/12 11:40:39;;;;;;;33.90;7.53;;;6.30;99.90;;;;;;5095106;28;20036;-70
2022/01/12 11:43:25;;;;;;;36.70;7.60;;;6.30;99.90;;;;;;5114052;28;20127;-71
2022/01/12 11:46:08;;;;;;;39.45;6.43;;;6.40;99.90;;;;;;5112983;28;20055;-71
2022/01/12 11:48:41;;;;;;;35.13;7.40;;;6.40;99.90;;;;;;5113821;28;20039;-71
2022/01/12 11:51:07;;;;;;;30.48;6.88;;;6.40;99.90;;;;;;5095764;28;20075;-71
2022/01/12 11:53:54;;;;;;;42.85;8.10;;;6.60;99.90;;;;;;5112096;28;20507;-71
2022/01/12 11:56:24;;;;;;;;;;;6.50;99.90;;;;;;5114250;28;20051;-71
2022/01/12 11:59:13;;;;;;;39.85;7.88;;;6.50;99.90;;;;;;5113327;28;20259;-73
2022/01/12 12:01:49;;;;;;;33.80;6.43;;;6.50;99.90;;;;;;5113448;28;20044;-72
2022/01/12 12:04:22;;;;;;;35.28;6.65;;;6.60;99.90;;;;;;5113010;28;20116;-72
2022/01/12 12:06:49;;;;;;;30.73;6.47;;;6.70;99.90;;;;;;5113064;28;20122;-73
2022/01/12 12:09:18;;;;;;;;;;;6.70;99.90;;;;;;5114046;28;20427;-72
2022/01/12 12:11:51;;;;;;;31.60;6.22;;;6.80;99.90;;;;;;5094868;28;20329;-72
2022/01/12 12:14:18;;;;;;;31.90;6.85;;;6.70;99.90;;;;;;5113176;28;20468;-73
2022/01/12 12:16:44;;;;;;;33.40;6.55;;;6.60;99.90;;;;;;5112995;28;20054;-72
2022/01/12 12:19:09;;;;;;;31.23;6.80;;;6.60;99.90;;;;;;5094674;28;20044;-71
2022/01/12 12:21:35;;;;;;;39.13;7.13;;;6.50;99.90;;;;;;5113479;28;20066;-71
2022/01/12 12:24:11;;;;;;;45.03;7.90;;;6.40;99.90;;;;;;5113038;28;20047;-71
2022/01/12 12:26:46;;;;;;;45.40;8.00;;;6.40;99.90;;;;;;5095186;28;20103;-71
2022/01/12 12:29:18;;;;;;;48.60;8.60;;;6.40;99.90;;;;;;5113109;28;20047;-72
2022/01/12 12:31:48;;;;;;;45.60;7.97;;;6.30;99.90;;;;;;5095385;28;20083;-72
2022/01/12 12:34:14;;;;;;;46.92;8.75;;;6.40;99.90;;;;;;5112866;28;20048;-72
2022/01/12 12:36:40;;;;;;;48.53;9.50;;;6.40;99.90;;;;;;5097323;28;20050;-72
2022/01/12 12:39:10;;;;;;;44.80;9.27;;;6.30;99.90;;;;;;5116842;28;20044;-71
2022/01/12 12:41:40;;;;;;;42.95;9.73;;;6.30;99.90;;;;;;5116577;28;20495;-71
2022/01/12 12:44:06;;;;;;;41.45;7.38;;;6.30;99.90;;;;;;5098586;28;20044;-72
2022/01/12 12:46:32;;;;;;;40.00;8.33;;;6.20;99.90;;;;;;5115573;28;20131;-71
2022/01/12 12:48:57;;;;;;;43.92;6.97;;;6.20;99.90;;;;;;5116784;28;20127;-72
2022/01/12 12:51:23;;;;;;;35.50;6.85;;;6.20;99.90;;;;;;5081915;28;20155;-72
2022/01/12 12:53:54;;;;;;;41.35;8.23;;;6.10;99.90;;;;;;5116588;28;20052;-72
2022/01/12 12:56:26;;;;;;;34.17;7.68;;;6.10;99.90;;;;;;5098718;28;20055;-71
2022/01/12 12:58:54;;;;;;;38.08;7.03;;;6.00;99.90;;;;;;5098614;28;20142;-71
2022/01/12 13:01:23;;;;;;;36.95;6.60;;;6.10;99.90;;;;;;5098265;28;20126;-71
2022/01/12 13:03:57;;;;;;;28.80;5.30;;;6.00;99.90;;;;;;5116661;28;20044;-72
2022/01/12 13:06:31;;;;;;;23.92;5.25;;;6.10;99.90;;;;;;5099008;28;20052;-73
2022/01/12 13:09:18;;;;;;;20.35;5.20;;;6.00;99.90;;;;;;5098109;28;20051;-72
2022/01/12 13:11:46;;;;;;;22.27;4.63;;;6.10;99.90;;;;;;5116920;28;20054;-71
2022/01/12 13:14:16;;;;;;;13.30;4.13;;;6.10;99.90;;;;;;5117589;28;20055;-72
2022/01/12 13:16:53;;;;;;;20.00;4.13;;;6.10;99.90;;;;;;5117191;28;20436;-72
2022/01/12 13:22:36;;;;;;;23.77;5.00;;;6.10;99.90;;;;;;5116243;28;20091;-72
2022/01/12 13:25:07;;;;;;;19.90;5.22;;;6.00;99.90;;;;;;5117071;28;20051;-72
2022/01/12 13:27:34;;;;;;;21.48;5.05;;;6.00;99.90;;;;;;5116408;28;20051;-72
2022/01/12 13:30:00;;;;;;;21.15;5.82;;;6.10;99.90;;;;;;5116278;28;20039;-71
2022/01/12 13:32:25;;;;;;;26.13;6.10;;;6.00;99.90;;;;;;5098184;28;20100;-74
2022/01/12 13:35:01;;;;;;;24.60;6.15;;;6.10;99.90;;;;;;5116092;28;20054;-72
2022/01/12 13:37:27;;;;;;;29.13;6.55;;;6.00;99.90;;;;;;5116205;28;20085;-74
2022/01/12 13:40:06;;;;;;;20.70;6.53;;;5.90;99.90;;;;;;5115803;28;20059;-72
2022/01/12 13:42:31;;;;;;;24.75;6.93;;;6.00;99.90;;;;;;5080775;28;20418;-72
2022/01/12 13:45:09;;;;;;;23.63;6.38;;;5.90;99.90;;;;;;5115959;28;20484;-72
2022/01/12 13:47:35;;;;;;;33.90;6.88;;;6.00;99.90;;;;;;5096810;28;20077;-72
2022/01/12 13:50:04;;;;;;;27.63;6.30;;;6.00;99.90;;;;;;5097642;28;20053;-72
2022/01/12 13:52:30;;;;;;;26.42;6.53;;;6.00;99.90;;;;;;5097412;28;20056;-73
2022/01/12 13:55:08;;;;;;;24.30;6.60;;;6.00;99.90;;;;;;5115794;28;20471;-72
2022/01/12 13:57:34;;;;;;;28.17;6.95;;;5.90;99.90;;;;;;5097787;28;20105;-73
2022/01/12 13:59:59;;;;;;;27.30;5.63;;;5.90;99.90;;;;;;5080183;28;20405;-72
2022/01/12 14:02:27;;;;;;;25.55;6.13;;;5.80;99.90;;;;;;5097647;28;20039;-72
2022/01/12 14:05:07;;;;;;;32.75;6.80;;;5.70;99.90;;;;;;5116010;28;20047;-72
2022/01/12 14:07:40;;;;;;;28.17;6.38;;;5.80;99.90;;;;;;5115771;28;20139;-72
2022/01/12 14:10:09;;;;;;;30.92;6.43;;;5.70;99.90;;;;;;5115633;28;20066;-71